KCRG/CRG METAR and TAF weather

Enter ICAO airport designator
Station Type Date Time Source
KCRG METAR 2021/09/24 02:53 UTC NOAA

KCRG 240253Z AUTO 35003KT 10SM CLR 21/18 A2999 RMK AO2 SLP154 T02110183 51018


Station Type Date Time Source
KCRG Decoded METAR 2021/09/24 02:53 UTC NOAA

JACKSONVILLE CRAIG MUN, FL, United States (KCRG) 30-20N 81-31W 13M
Sep 23, 2021 - 10:53 PM EDT / 2021.09.24 0253 UTC
Wind: from the N (350 degrees) at 3 MPH (3 KT):0
Visibility: 10 mile(s):0
Sky conditions: clear
Temperature: 70.0 F (21.1 C)
Dew Point: 64.9 F (18.3 C)
Relative Humidity: 84%
Pressure (altimeter): 29.99 in. Hg (1015 hPa)
Pressure tendency: 0.05 inches (1.8 hPa) higher than three hours ago
ob: KCRG 240253Z AUTO 35003KT 10SM CLR 21/18 A2999 RMK AO2 SLP154 T02110183 51018
cycle: 3

Station Type Date Time Source
KCRG TAF 2021/09/23 21:30 UTC NOAA

TAF
AMD KCRG 232128Z 2321/2418 07008KT P6SM FEW250
FM240000 36004KT P6SM SKC
FM241300 03006KT P6SM FEW040
FM241730 05008KT P6SM SCT035

Example: see airport list